General Aviation Weather

Text Reports

Enter one or more of the following location identifiers separated by a space:

Zip Code, Four-Character ICAO or Three-Character IATA airport codes.

METAR - Aviation Routine Weather Report
LPPR - Porto,
Updated at 5:30 AM GMT on July 26, 2014 (6:30 AM WEST):
METAR LPPR 260530Z VRB02KT 0800 R17/2000D PRFG BKN001 BKN002 18/17 Q1013
TAF - Terminal Area Forecast
LPPR - Porto,
Updated at 5:30 AM GMT on July 26, 2014 (6:30 AM WEST):
TAF LPPR 260500Z 2606/2706 18005KT 2000 BR BKN002 PROB30 TEMPO
         2606/2608 0600 PRFG BKN001 BECMG 2609/2612 27005KT 9999 NSW
         SCT015 TEMPO 2612/2618 6000 BKN008 BECMG 2618/2621 21005KT
         5000 BR SCT002 SCT004 PROB40 TEMPO 2700/2706 0400 PRFG
         BKN001=
Decoded:
ID: LPPR   Porto/Pedras Ru, PO
REPORT TIME: 26  5: 0
VALID TIME: 26 July AT 06:00Z to 27 July AT 06:00Z.
INITIAL WX
   WINDS: 180 AT 5
   VISIBILITY: 1.2 MILES
   WEATHER: BR
   CLOUDS: 2 BKN
30% PROBABILITY OF WX 
TEMPORARY WX FROM 06Z TO 08Z
   VISIBILITY: 0.4 MILES
   WEATHER: PRFG
   CLOUDS: 1 BKN
WX BECOMING FROM 09Z TO 12Z
   WINDS: 270 AT 5
   WEATHER: NSW
   CLOUDS: 15 SCT
TEMPORARY WX FROM 12Z TO 18Z
   VISIBILITY: 3.7 MILES
   CLOUDS: 8 BKN
WX BECOMING FROM 18Z TO 21Z
   WINDS: 210 AT 5
   VISIBILITY: 3.1 MILES
   WEATHER: BR
   CLOUDS: 2 SCT
   CLOUDS: 4 SCT
40% PROBABILITY OF WX 
TEMPORARY WX FROM 00Z TO 06Z
   VISIBILITY: 0.2 MILES
   WEATHER: PRFG
   CLOUDS: 1 BKN
   COMMENTS: = 

CORRECTION
INITIAL WX
   WEATHER: WAPP
   COMMENTS: 260500Z 2606/2706 14009KT 9999 SCT020= 

PIREP - Pilot Weather Report
LPPR - Porto,
Updated at 5:30 AM GMT on July 26, 2014 (6:30 AM WEST):
No PIREP is currently available for this location.
AIRMET - Airmens Meteorological Information
LPPR - Porto,
Updated at 5:30 AM GMT on July 26, 2014 (6:30 AM WEST):
No AIRMET is currently available for this location.
SIGMET - Significant Meteorological Information
LPPR - Porto,
Updated at 5:30 AM GMT on July 26, 2014 (6:30 AM WEST):
No SIGMET is currently available for this location.
NOTAM - Notice to Airmen
LPPR - Porto,
Updated at 5:30 AM GMT on July 26, 2014 (6:30 AM WEST):
No NOTAM is currently available for this location.
Forecast Area
LPPR - Porto,
Updated at 5:30 AM GMT on July 26, 2014 (6:30 AM WEST):
No NOTAM is currently available for this location.
Aviation Weather Maps